sensor_id;sensor_type;location;lat;lon;timestamp;P1;durP1;ratioP1;P2;durP2;ratioP2
28653;SDS011;24320;56.980;24.336;2023-08-12T00:00:02;7.97;;;5.55;;
28653;SDS011;24320;56.980;24.336;2023-08-12T00:02:38;8.82;;;5.28;;
28653;SDS011;24320;56.980;24.336;2023-08-12T00:05:06;7.60;;;5.10;;
28653;SDS011;24320;56.980;24.336;2023-08-12T00:07:34;9.60;;;5.20;;
28653;SDS011;24320;56.980;24.336;2023-08-12T00:10:01;10.75;;;5.88;;
28653;SDS011;24320;56.980;24.336;2023-08-12T00:12:33;7.82;;;5.50;;
28653;SDS011;24320;56.980;24.336;2023-08-12T00:17:29;10.10;;;4.80;;
28653;SDS011;24320;56.980;24.336;2023-08-12T00:20:06;8.73;;;5.07;;
28653;SDS011;24320;56.980;24.336;2023-08-12T00:22:37;8.68;;;5.13;;
28653;SDS011;24320;56.980;24.336;2023-08-12T00:25:05;10.88;;;4.82;;
28653;SDS011;24320;56.980;24.336;2023-08-12T00:27:32;6.88;;;4.60;;
28653;SDS011;24320;56.980;24.336;2023-08-12T00:30:00;6.47;;;4.82;;
28653;SDS011;24320;56.980;24.336;2023-08-12T00:32:27;5.82;;;4.63;;
28653;SDS011;24320;56.980;24.336;2023-08-12T00:34:55;10.93;;;4.90;;
28653;SDS011;24320;56.980;24.336;2023-08-12T00:37:22;8.43;;;4.47;;
28653;SDS011;24320;56.980;24.336;2023-08-12T00:39:49;9.38;;;4.90;;
28653;SDS011;24320;56.980;24.336;2023-08-12T00:42:16;7.78;;;4.72;;
28653;SDS011;24320;56.980;24.336;2023-08-12T00:44:43;8.82;;;4.90;;
28653;SDS011;24320;56.980;24.336;2023-08-12T00:47:11;8.40;;;4.82;;
28653;SDS011;24320;56.980;24.336;2023-08-12T00:49:39;7.07;;;4.38;;
28653;SDS011;24320;56.980;24.336;2023-08-12T00:52:09;10.50;;;4.88;;
28653;SDS011;24320;56.980;24.336;2023-08-12T00:54:37;5.82;;;4.65;;
28653;SDS011;24320;56.980;24.336;2023-08-12T00:57:04;8.70;;;4.43;;
28653;SDS011;24320;56.980;24.336;2023-08-12T00:59:32;8.55;;;4.82;;
28653;SDS011;24320;56.980;24.336;2023-08-12T01:02:03;6.72;;;4.50;;
28653;SDS011;24320;56.980;24.336;2023-08-12T01:04:31;6.93;;;4.80;;
28653;SDS011;24320;56.980;24.336;2023-08-12T01:06:58;8.30;;;4.22;;
28653;SDS011;24320;56.980;24.336;2023-08-12T01:09:25;8.40;;;4.38;;
28653;SDS011;24320;56.980;24.336;2023-08-12T01:14:39;5.93;;;4.55;;
28653;SDS011;24320;56.980;24.336;2023-08-12T01:17:14;8.05;;;4.47;;
28653;SDS011;24320;56.980;24.336;2023-08-12T01:19:43;8.05;;;4.60;;
28653;SDS011;24320;56.980;24.336;2023-08-12T01:22:13;8.15;;;4.72;;
28653;SDS011;24320;56.980;24.336;2023-08-12T01:24:43;7.40;;;5.10;;
28653;SDS011;24320;56.980;24.336;2023-08-12T01:27:12;6.50;;;4.35;;
28653;SDS011;24320;56.980;24.336;2023-08-12T01:29:44;11.95;;;5.05;;
28653;SDS011;24320;56.980;24.336;2023-08-12T01:32:16;6.05;;;4.75;;
28653;SDS011;24320;56.980;24.336;2023-08-12T01:34:58;6.97;;;4.70;;
28653;SDS011;24320;56.980;24.336;2023-08-12T01:37:32;9.82;;;5.25;;
28653;SDS011;24320;56.980;24.336;2023-08-12T01:40:01;8.68;;;4.70;;
28653;SDS011;24320;56.980;24.336;2023-08-12T01:42:32;12.18;;;4.85;;
28653;SDS011;24320;56.980;24.336;2023-08-12T01:45:00;14.05;;;4.80;;
28653;SDS011;24320;56.980;24.336;2023-08-12T01:47:28;9.23;;;5.50;;
28653;SDS011;24320;56.980;24.336;2023-08-12T01:49:55;8.43;;;4.90;;
28653;SDS011;24320;56.980;24.336;2023-08-12T01:52:25;7.63;;;4.60;;
28653;SDS011;24320;56.980;24.336;2023-08-12T01:54:58;8.35;;;4.88;;
28653;SDS011;24320;56.980;24.336;2023-08-12T01:57:25;13.48;;;5.30;;
28653;SDS011;24320;56.980;24.336;2023-08-12T01:59:52;16.63;;;5.25;;
28653;SDS011;24320;56.980;24.336;2023-08-12T02:02:19;9.23;;;5.53;;
28653;SDS011;24320;56.980;24.336;2023-08-12T02:04:50;8.40;;;5.30;;
28653;SDS011;24320;56.980;24.336;2023-08-12T02:07:17;14.43;;;5.00;;
28653;SDS011;24320;56.980;24.336;2023-08-12T02:09:51;6.70;;;4.70;;
28653;SDS011;24320;56.980;24.336;2023-08-12T02:12:19;11.50;;;4.55;;
28653;SDS011;24320;56.980;24.336;2023-08-12T02:14:46;7.80;;;4.82;;
28653;SDS011;24320;56.980;24.336;2023-08-12T02:17:17;10.32;;;5.43;;
28653;SDS011;24320;56.980;24.336;2023-08-12T02:19:44;13.90;;;5.43;;
28653;SDS011;24320;56.980;24.336;2023-08-12T02:22:12;8.02;;;5.43;;
28653;SDS011;24320;56.980;24.336;2023-08-12T02:24:40;7.13;;;4.63;;
28653;SDS011;24320;56.980;24.336;2023-08-12T02:27:07;10.38;;;5.50;;
28653;SDS011;24320;56.980;24.336;2023-08-12T02:29:35;9.55;;;5.10;;
28653;SDS011;24320;56.980;24.336;2023-08-12T02:32:02;12.23;;;5.22;;
28653;SDS011;24320;56.980;24.336;2023-08-12T02:34:30;10.90;;;5.88;;
28653;SDS011;24320;56.980;24.336;2023-08-12T02:36:57;12.50;;;6.35;;
28653;SDS011;24320;56.980;24.336;2023-08-12T02:39:24;15.15;;;6.43;;
28653;SDS011;24320;56.980;24.336;2023-08-12T02:41:51;14.95;;;6.28;;
28653;SDS011;24320;56.980;24.336;2023-08-12T02:44:19;14.00;;;6.47;;
28653;SDS011;24320;56.980;24.336;2023-08-12T02:46:46;9.68;;;5.90;;
28653;SDS011;24320;56.980;24.336;2023-08-12T02:49:13;14.65;;;5.50;;
28653;SDS011;24320;56.980;24.336;2023-08-12T02:51:40;10.80;;;5.50;;
28653;SDS011;24320;56.980;24.336;2023-08-12T02:54:07;9.20;;;5.50;;
28653;SDS011;24320;56.980;24.336;2023-08-12T02:56:35;9.00;;;5.55;;
28653;SDS011;24320;56.980;24.336;2023-08-12T02:59:02;10.30;;;5.65;;
28653;SDS011;24320;56.980;24.336;2023-08-12T03:01:29;15.88;;;5.53;;
28653;SDS011;24320;56.980;24.336;2023-08-12T03:03:56;13.68;;;5.38;;
28653;SDS011;24320;56.980;24.336;2023-08-12T03:06:23;11.23;;;5.47;;
28653;SDS011;24320;56.980;24.336;2023-08-12T03:08:51;9.45;;;5.97;;
28653;SDS011;24320;56.980;24.336;2023-08-12T03:11:18;9.50;;;5.70;;
28653;SDS011;24320;56.980;24.336;2023-08-12T03:13:45;10.73;;;6.18;;
28653;SDS011;24320;56.980;24.336;2023-08-12T03:16:12;14.82;;;6.30;;
28653;SDS011;24320;56.980;24.336;2023-08-12T03:18:40;11.65;;;6.55;;
28653;SDS011;24320;56.980;24.336;2023-08-12T03:21:08;11.35;;;7.20;;
28653;SDS011;24320;56.980;24.336;2023-08-12T03:23:39;17.50;;;7.97;;
28653;SDS011;24320;56.980;24.336;2023-08-12T03:26:16;13.88;;;7.95;;
28653;SDS011;24320;56.980;24.336;2023-08-12T03:28:43;17.52;;;8.70;;
28653;SDS011;24320;56.980;24.336;2023-08-12T03:31:10;15.25;;;7.80;;
28653;SDS011;24320;56.980;24.336;2023-08-12T03:33:37;14.30;;;7.60;;
28653;SDS011;24320;56.980;24.336;2023-08-12T03:36:05;11.07;;;6.57;;
28653;SDS011;24320;56.980;24.336;2023-08-12T03:38:32;11.27;;;6.00;;
28653;SDS011;24320;56.980;24.336;2023-08-12T03:41:02;8.98;;;4.97;;
28653;SDS011;24320;56.980;24.336;2023-08-12T03:43:30;7.18;;;4.60;;
28653;SDS011;24320;56.980;24.336;2023-08-12T03:45:57;9.05;;;4.15;;
28653;SDS011;24320;56.980;24.336;2023-08-12T03:48:24;8.27;;;4.18;;
28653;SDS011;24320;56.980;24.336;2023-08-12T03:50:51;7.17;;;4.43;;
28653;SDS011;24320;56.980;24.336;2023-08-12T03:53:34;5.30;;;3.63;;
28653;SDS011;24320;56.980;24.336;2023-08-12T03:56:01;7.53;;;3.65;;
28653;SDS011;24320;56.980;24.336;2023-08-12T03:58:28;6.50;;;3.72;;
28653;SDS011;24320;56.980;24.336;2023-08-12T04:00:57;5.38;;;3.78;;
28653;SDS011;24320;56.980;24.336;2023-08-12T04:03:24;6.60;;;3.72;;
28653;SDS011;24320;56.980;24.336;2023-08-12T04:05:53;5.13;;;3.35;;
28653;SDS011;24320;56.980;24.336;2023-08-12T04:08:21;5.43;;;3.47;;
28653;SDS011;24320;56.980;24.336;2023-08-12T04:10:50;8.20;;;3.88;;
28653;SDS011;24320;56.980;24.336;2023-08-12T04:13:17;6.95;;;3.92;;
28653;SDS011;24320;56.980;24.336;2023-08-12T04:15:49;7.03;;;3.35;;
28653;SDS011;24320;56.980;24.336;2023-08-12T04:18:17;5.95;;;3.30;;
28653;SDS011;24320;56.980;24.336;2023-08-12T04:20:50;3.97;;;3.20;;
28653;SDS011;24320;56.980;24.336;2023-08-12T04:23:18;5.40;;;3.20;;
28653;SDS011;24320;56.980;24.336;2023-08-12T04:25:46;8.02;;;3.00;;
28653;SDS011;24320;56.980;24.336;2023-08-12T04:28:14;5.05;;;2.78;;
28653;SDS011;24320;56.980;24.336;2023-08-12T04:30:42;4.35;;;2.40;;
28653;SDS011;24320;56.980;24.336;2023-08-12T04:33:10;6.00;;;2.70;;
28653;SDS011;24320;56.980;24.336;2023-08-12T04:35:38;15.88;;;3.03;;
28653;SDS011;24320;56.980;24.336;2023-08-12T04:38:06;7.95;;;4.07;;
28653;SDS011;24320;56.980;24.336;2023-08-12T04:40:34;24.08;;;10.10;;
28653;SDS011;24320;56.980;24.336;2023-08-12T04:43:01;10.00;;;4.00;;
28653;SDS011;24320;56.980;24.336;2023-08-12T04:45:28;6.40;;;3.67;;
28653;SDS011;24320;56.980;24.336;2023-08-12T04:47:56;14.38;;;7.07;;
28653;SDS011;24320;56.980;24.336;2023-08-12T04:50:24;6.85;;;3.22;;
28653;SDS011;24320;56.980;24.336;2023-08-12T04:53:08;4.68;;;2.50;;
28653;SDS011;24320;56.980;24.336;2023-08-12T04:55:35;5.03;;;2.80;;
28653;SDS011;24320;56.980;24.336;2023-08-12T04:58:03;6.65;;;3.28;;
28653;SDS011;24320;56.980;24.336;2023-08-12T05:00:30;5.95;;;2.75;;
28653;SDS011;24320;56.980;24.336;2023-08-12T05:02:58;4.60;;;2.58;;
28653;SDS011;24320;56.980;24.336;2023-08-12T05:05:26;4.30;;;2.88;;
28653;SDS011;24320;56.980;24.336;2023-08-12T05:07:53;3.63;;;2.40;;
28653;SDS011;24320;56.980;24.336;2023-08-12T05:10:20;5.25;;;2.38;;
28653;SDS011;24320;56.980;24.336;2023-08-12T05:12:48;6.15;;;2.60;;
28653;SDS011;24320;56.980;24.336;2023-08-12T05:15:16;7.15;;;2.67;;
28653;SDS011;24320;56.980;24.336;2023-08-12T05:17:43;3.47;;;2.05;;
28653;SDS011;24320;56.980;24.336;2023-08-12T05:20:10;3.45;;;1.90;;
28653;SDS011;24320;56.980;24.336;2023-08-12T05:22:38;4.07;;;2.13;;
28653;SDS011;24320;56.980;24.336;2023-08-12T05:25:05;4.32;;;1.88;;
28653;SDS011;24320;56.980;24.336;2023-08-12T05:27:32;7.65;;;2.38;;
28653;SDS011;24320;56.980;24.336;2023-08-12T05:29:59;4.85;;;1.92;;
28653;SDS011;24320;56.980;24.336;2023-08-12T05:32:27;3.78;;;1.60;;
28653;SDS011;24320;56.980;24.336;2023-08-12T05:34:54;4.55;;;1.80;;
28653;SDS011;24320;56.980;24.336;2023-08-12T05:37:21;3.58;;;1.70;;
28653;SDS011;24320;56.980;24.336;2023-08-12T05:39:48;8.77;;;1.73;;
28653;SDS011;24320;56.980;24.336;2023-08-12T05:42:15;3.78;;;1.58;;
28653;SDS011;24320;56.980;24.336;2023-08-12T05:44:42;3.22;;;1.58;;
28653;SDS011;24320;56.980;24.336;2023-08-12T05:47:10;3.67;;;1.58;;
28653;SDS011;24320;56.980;24.336;2023-08-12T05:49:37;4.95;;;1.75;;
28653;SDS011;24320;56.980;24.336;2023-08-12T05:52:04;4.43;;;1.67;;
28653;SDS011;24320;56.980;24.336;2023-08-12T05:54:31;2.50;;;1.30;;
28653;SDS011;24320;56.980;24.336;2023-08-12T05:56:58;5.32;;;1.67;;
28653;SDS011;24320;56.980;24.336;2023-08-12T05:59:25;3.58;;;1.30;;
28653;SDS011;24320;56.980;24.336;2023-08-12T06:01:53;2.08;;;1.30;;
28653;SDS011;24320;56.980;24.336;2023-08-12T06:04:20;4.60;;;1.35;;
28653;SDS011;24320;56.980;24.336;2023-08-12T06:06:47;3.95;;;1.33;;
28653;SDS011;24320;56.980;24.336;2023-08-12T06:09:14;4.00;;;1.42;;
28653;SDS011;24320;56.980;24.336;2023-08-12T06:11:41;4.28;;;1.20;;
28653;SDS011;24320;56.980;24.336;2023-08-12T06:14:09;5.50;;;1.60;;
28653;SDS011;24320;56.980;24.336;2023-08-12T06:16:38;3.80;;;1.25;;
28653;SDS011;24320;56.980;24.336;2023-08-12T06:19:24;14.88;;;2.15;;
28653;SDS011;24320;56.980;24.336;2023-08-12T06:21:52;7.75;;;1.70;;
28653;SDS011;24320;56.980;24.336;2023-08-12T06:24:19;4.03;;;1.10;;
28653;SDS011;24320;56.980;24.336;2023-08-12T06:26:45;5.43;;;1.17;;
28653;SDS011;24320;56.980;24.336;2023-08-12T06:29:13;2.38;;;1.45;;
28653;SDS011;24320;56.980;24.336;2023-08-12T06:31:39;1.98;;;0.90;;
28653;SDS011;24320;56.980;24.336;2023-08-12T06:34:07;4.88;;;1.30;;
28653;SDS011;24320;56.980;24.336;2023-08-12T06:36:34;2.50;;;1.17;;
28653;SDS011;24320;56.980;24.336;2023-08-12T06:39:01;1.80;;;1.00;;
28653;SDS011;24320;56.980;24.336;2023-08-12T06:41:29;2.67;;;1.10;;
28653;SDS011;24320;56.980;24.336;2023-08-12T06:43:56;7.03;;;1.30;;
28653;SDS011;24320;56.980;24.336;2023-08-12T06:46:23;4.68;;;1.20;;
28653;SDS011;24320;56.980;24.336;2023-08-12T06:48:50;4.10;;;1.23;;
28653;SDS011;24320;56.980;24.336;2023-08-12T06:51:17;5.50;;;1.25;;
28653;SDS011;24320;56.980;24.336;2023-08-12T06:53:44;1.88;;;1.10;;
28653;SDS011;24320;56.980;24.336;2023-08-12T06:56:12;3.28;;;1.00;;
28653;SDS011;24320;56.980;24.336;2023-08-12T06:58:39;2.22;;;1.10;;
28653;SDS011;24320;56.980;24.336;2023-08-12T07:01:06;3.42;;;1.25;;
28653;SDS011;24320;56.980;24.336;2023-08-12T07:03:33;1.33;;;1.00;;
28653;SDS011;24320;56.980;24.336;2023-08-12T07:06:00;7.97;;;1.30;;
28653;SDS011;24320;56.980;24.336;2023-08-12T07:08:27;3.35;;;1.10;;
28653;SDS011;24320;56.980;24.336;2023-08-12T07:10:55;2.97;;;1.25;;
28653;SDS011;24320;56.980;24.336;2023-08-12T07:13:22;2.92;;;1.20;;
28653;SDS011;24320;56.980;24.336;2023-08-12T07:15:50;1.80;;;1.20;;
28653;SDS011;24320;56.980;24.336;2023-08-12T07:18:17;3.35;;;1.20;;
28653;SDS011;24320;56.980;24.336;2023-08-12T07:20:44;2.88;;;1.50;;
28653;SDS011;24320;56.980;24.336;2023-08-12T07:23:12;3.30;;;1.35;;
28653;SDS011;24320;56.980;24.336;2023-08-12T07:25:46;3.08;;;1.50;;
28653;SDS011;24320;56.980;24.336;2023-08-12T07:28:13;3.40;;;1.35;;
28653;SDS011;24320;56.980;24.336;2023-08-12T07:30:40;4.68;;;1.55;;
28653;SDS011;24320;56.980;24.336;2023-08-12T07:33:08;4.38;;;1.60;;
28653;SDS011;24320;56.980;24.336;2023-08-12T07:35:35;3.53;;;1.40;;
28653;SDS011;24320;56.980;24.336;2023-08-12T07:38:02;2.72;;;1.30;;
28653;SDS011;24320;56.980;24.336;2023-08-12T07:40:34;4.32;;;1.60;;
28653;SDS011;24320;56.980;24.336;2023-08-12T07:43:07;4.90;;;1.70;;
28653;SDS011;24320;56.980;24.336;2023-08-12T07:45:34;3.70;;;1.52;;
28653;SDS011;24320;56.980;24.336;2023-08-12T07:48:01;3.55;;;1.55;;
28653;SDS011;24320;56.980;24.336;2023-08-12T07:50:29;2.95;;;1.35;;
28653;SDS011;24320;56.980;24.336;2023-08-12T07:52:56;2.78;;;1.25;;
28653;SDS011;24320;56.980;24.336;2023-08-12T07:55:23;5.68;;;1.05;;
28653;SDS011;24320;56.980;24.336;2023-08-12T07:57:52;3.35;;;1.17;;
28653;SDS011;24320;56.980;24.336;2023-08-12T08:00:20;3.38;;;1.50;;
28653;SDS011;24320;56.980;24.336;2023-08-12T08:02:59;3.92;;;1.90;;
28653;SDS011;24320;56.980;24.336;2023-08-12T08:05:31;4.38;;;1.13;;
28653;SDS011;24320;56.980;24.336;2023-08-12T08:07:58;4.45;;;1.40;;
28653;SDS011;24320;56.980;24.336;2023-08-12T08:10:25;4.38;;;1.50;;
28653;SDS011;24320;56.980;24.336;2023-08-12T08:12:52;8.82;;;1.70;;
28653;SDS011;24320;56.980;24.336;2023-08-12T08:15:19;5.75;;;1.80;;
28653;SDS011;24320;56.980;24.336;2023-08-12T08:17:46;2.78;;;1.58;;
28653;SDS011;24320;56.980;24.336;2023-08-12T08:20:14;1.15;;;1.05;;
28653;SDS011;24320;56.980;24.336;2023-08-12T08:22:41;3.45;;;1.52;;
28653;SDS011;24320;56.980;24.336;2023-08-12T08:25:08;3.17;;;1.13;;
28653;SDS011;24320;56.980;24.336;2023-08-12T08:27:35;5.80;;;1.27;;
28653;SDS011;24320;56.980;24.336;2023-08-12T08:30:02;2.90;;;1.25;;
28653;SDS011;24320;56.980;24.336;2023-08-12T08:32:30;4.78;;;1.17;;
28653;SDS011;24320;56.980;24.336;2023-08-12T08:34:57;2.60;;;1.02;;
28653;SDS011;24320;56.980;24.336;2023-08-12T08:37:26;5.13;;;1.05;;
28653;SDS011;24320;56.980;24.336;2023-08-12T08:39:55;6.87;;;1.07;;
28653;SDS011;24320;56.980;24.336;2023-08-12T08:42:44;4.28;;;1.30;;
28653;SDS011;24320;56.980;24.336;2023-08-12T08:45:17;3.42;;;1.10;;
28653;SDS011;24320;56.980;24.336;2023-08-12T08:47:46;6.93;;;1.35;;
28653;SDS011;24320;56.980;24.336;2023-08-12T08:50:15;3.22;;;1.10;;
28653;SDS011;24320;56.980;24.336;2023-08-12T08:52:43;4.53;;;1.30;;
28653;SDS011;24320;56.980;24.336;2023-08-12T08:55:11;2.78;;;1.30;;
28653;SDS011;24320;56.980;24.336;2023-08-12T08:57:39;4.68;;;1.17;;
28653;SDS011;24320;56.980;24.336;2023-08-12T09:00:14;5.28;;;1.45;;
28653;SDS011;24320;56.980;24.336;2023-08-12T09:02:45;2.65;;;1.70;;
28653;SDS011;24320;56.980;24.336;2023-08-12T09:05:14;3.42;;;1.98;;
28653;SDS011;24320;56.980;24.336;2023-08-12T09:07:42;5.05;;;1.92;;
28653;SDS011;24320;56.980;24.336;2023-08-12T09:10:16;4.85;;;1.70;;
28653;SDS011;24320;56.980;24.336;2023-08-12T09:12:47;4.75;;;1.77;;
28653;SDS011;24320;56.980;24.336;2023-08-12T09:15:15;5.65;;;1.92;;
28653;SDS011;24320;56.980;24.336;2023-08-12T09:17:43;3.97;;;1.83;;
28653;SDS011;24320;56.980;24.336;2023-08-12T09:20:10;5.28;;;1.90;;
28653;SDS011;24320;56.980;24.336;2023-08-12T09:22:42;7.65;;;1.92;;
28653;SDS011;24320;56.980;24.336;2023-08-12T09:27:37;3.92;;;1.77;;
28653;SDS011;24320;56.980;24.336;2023-08-12T09:30:05;2.38;;;1.20;;
28653;SDS011;24320;56.980;24.336;2023-08-12T09:32:34;4.75;;;1.50;;
28653;SDS011;24320;56.980;24.336;2023-08-12T09:35:01;3.85;;;1.52;;
28653;SDS011;24320;56.980;24.336;2023-08-12T09:37:30;5.38;;;1.48;;
28653;SDS011;24320;56.980;24.336;2023-08-12T09:39:57;3.28;;;1.70;;
28653;SDS011;24320;56.980;24.336;2023-08-12T09:42:24;3.30;;;1.48;;
28653;SDS011;24320;56.980;24.336;2023-08-12T09:44:52;3.40;;;1.73;;
28653;SDS011;24320;56.980;24.336;2023-08-12T09:47:19;4.57;;;1.98;;
28653;SDS011;24320;56.980;24.336;2023-08-12T09:49:46;3.67;;;1.80;;
28653;SDS011;24320;56.980;24.336;2023-08-12T09:52:13;3.70;;;1.92;;
28653;SDS011;24320;56.980;24.336;2023-08-12T09:54:41;6.25;;;2.15;;
28653;SDS011;24320;56.980;24.336;2023-08-12T09:57:09;4.88;;;2.60;;
28653;SDS011;24320;56.980;24.336;2023-08-12T09:59:39;5.67;;;2.30;;
28653;SDS011;24320;56.980;24.336;2023-08-12T10:02:08;4.78;;;2.00;;
28653;SDS011;24320;56.980;24.336;2023-08-12T10:04:45;3.75;;;1.80;;
28653;SDS011;24320;56.980;24.336;2023-08-12T10:07:12;3.28;;;1.77;;
28653;SDS011;24320;56.980;24.336;2023-08-12T10:09:40;6.72;;;1.90;;
28653;SDS011;24320;56.980;24.336;2023-08-12T10:12:09;3.10;;;1.80;;
28653;SDS011;24320;56.980;24.336;2023-08-12T10:14:38;4.65;;;1.92;;
28653;SDS011;24320;56.980;24.336;2023-08-12T10:17:06;3.83;;;2.10;;
28653;SDS011;24320;56.980;24.336;2023-08-12T10:19:35;2.60;;;1.70;;
28653;SDS011;24320;56.980;24.336;2023-08-12T10:22:03;6.85;;;2.50;;
28653;SDS011;24320;56.980;24.336;2023-08-12T10:24:31;7.53;;;2.30;;
28653;SDS011;24320;56.980;24.336;2023-08-12T10:27:00;3.80;;;2.17;;
28653;SDS011;24320;56.980;24.336;2023-08-12T10:29:29;7.07;;;2.35;;
28653;SDS011;24320;56.980;24.336;2023-08-12T10:31:57;4.60;;;2.17;;
28653;SDS011;24320;56.980;24.336;2023-08-12T10:34:24;4.75;;;2.17;;
28653;SDS011;24320;56.980;24.336;2023-08-12T10:36:55;2.10;;;1.90;;
28653;SDS011;24320;56.980;24.336;2023-08-12T10:39:29;7.25;;;2.45;;
28653;SDS011;24320;56.980;24.336;2023-08-12T10:41:58;3.37;;;2.20;;
28653;SDS011;24320;56.980;24.336;2023-08-12T10:44:38;2.80;;;1.73;;
28653;SDS011;24320;56.980;24.336;2023-08-12T10:47:07;3.78;;;2.00;;
28653;SDS011;24320;56.980;24.336;2023-08-12T10:49:43;4.63;;;2.20;;
28653;SDS011;24320;56.980;24.336;2023-08-12T10:52:30;3.65;;;1.80;;
28653;SDS011;24320;56.980;24.336;2023-08-12T10:57:48;3.72;;;1.70;;
28653;SDS011;24320;56.980;24.336;2023-08-12T11:00:26;2.90;;;1.70;;
28653;SDS011;24320;56.980;24.336;2023-08-12T11:05:44;2.25;;;1.60;;
28653;SDS011;24320;56.980;24.336;2023-08-12T11:08:13;3.05;;;1.98;;
28653;SDS011;24320;56.980;24.336;2023-08-12T11:10:40;3.88;;;2.20;;
28653;SDS011;24320;56.980;24.336;2023-08-12T11:13:13;3.15;;;1.70;;
28653;SDS011;24320;56.980;24.336;2023-08-12T11:15:41;2.65;;;1.77;;
28653;SDS011;24320;56.980;24.336;2023-08-12T11:18:16;3.25;;;1.70;;
28653;SDS011;24320;56.980;24.336;2023-08-12T11:20:44;1.85;;;1.40;;
28653;SDS011;24320;56.980;24.336;2023-08-12T11:23:13;2.05;;;1.55;;
28653;SDS011;24320;56.980;24.336;2023-08-12T11:25:42;3.22;;;1.25;;
28653;SDS011;24320;56.980;24.336;2023-08-12T11:28:10;2.80;;;1.15;;
28653;SDS011;24320;56.980;24.336;2023-08-12T11:30:39;1.50;;;1.25;;
28653;SDS011;24320;56.980;24.336;2023-08-12T11:35:36;3.25;;;1.30;;
28653;SDS011;24320;56.980;24.336;2023-08-12T11:38:05;3.38;;;1.48;;
28653;SDS011;24320;56.980;24.336;2023-08-12T11:40:34;2.67;;;1.55;;
28653;SDS011;24320;56.980;24.336;2023-08-12T11:43:01;2.58;;;1.48;;
28653;SDS011;24320;56.980;24.336;2023-08-12T11:45:32;1.95;;;1.25;;
28653;SDS011;24320;56.980;24.336;2023-08-12T11:47:59;1.77;;;1.52;;
28653;SDS011;24320;56.980;24.336;2023-08-12T11:50:26;3.58;;;1.67;;
28653;SDS011;24320;56.980;24.336;2023-08-12T11:52:55;4.18;;;1.58;;
28653;SDS011;24320;56.980;24.336;2023-08-12T11:55:22;3.70;;;1.08;;
28653;SDS011;24320;56.980;24.336;2023-08-12T11:57:51;2.08;;;1.13;;
28653;SDS011;24320;56.980;24.336;2023-08-12T12:00:18;2.00;;;1.20;;
28653;SDS011;24320;56.980;24.336;2023-08-12T12:02:50;5.20;;;1.65;;
28653;SDS011;24320;56.980;24.336;2023-08-12T12:05:23;2.17;;;1.00;;
28653;SDS011;24320;56.980;24.336;2023-08-12T12:07:53;2.53;;;1.00;;
28653;SDS011;24320;56.980;24.336;2023-08-12T12:10:21;2.05;;;0.90;;
28653;SDS011;24320;56.980;24.336;2023-08-12T12:12:58;3.25;;;1.30;;
28653;SDS011;24320;56.980;24.336;2023-08-12T12:15:26;1.27;;;0.80;;
28653;SDS011;24320;56.980;24.336;2023-08-12T12:17:54;2.78;;;1.13;;
28653;SDS011;24320;56.980;24.336;2023-08-12T12:20:21;5.97;;;1.85;;
28653;SDS011;24320;56.980;24.336;2023-08-12T12:22:48;3.38;;;1.15;;
28653;SDS011;24320;56.980;24.336;2023-08-12T12:25:16;1.52;;;1.00;;
28653;SDS011;24320;56.980;24.336;2023-08-12T12:27:46;3.63;;;1.27;;
28653;SDS011;24320;56.980;24.336;2023-08-12T12:30:14;3.10;;;1.25;;
28653;SDS011;24320;56.980;24.336;2023-08-12T12:32:42;2.67;;;0.90;;
28653;SDS011;24320;56.980;24.336;2023-08-12T12:35:10;3.20;;;1.08;;
28653;SDS011;24320;56.980;24.336;2023-08-12T12:37:37;1.77;;;1.10;;
28653;SDS011;24320;56.980;24.336;2023-08-12T12:40:04;1.45;;;1.10;;
28653;SDS011;24320;56.980;24.336;2023-08-12T12:42:31;1.23;;;0.98;;
28653;SDS011;24320;56.980;24.336;2023-08-12T12:44:59;2.65;;;0.90;;
28653;SDS011;24320;56.980;24.336;2023-08-12T12:47:26;2.88;;;0.80;;
28653;SDS011;24320;56.980;24.336;2023-08-12T12:49:53;1.27;;;0.80;;
28653;SDS011;24320;56.980;24.336;2023-08-12T12:52:20;2.90;;;1.25;;
28653;SDS011;24320;56.980;24.336;2023-08-12T12:54:47;2.42;;;1.10;;
28653;SDS011;24320;56.980;24.336;2023-08-12T12:57:14;2.53;;;1.02;;
28653;SDS011;24320;56.980;24.336;2023-08-12T12:59:41;1.58;;;0.90;;
28653;SDS011;24320;56.980;24.336;2023-08-12T13:02:08;4.90;;;1.00;;
28653;SDS011;24320;56.980;24.336;2023-08-12T13:04:35;5.65;;;1.40;;
28653;SDS011;24320;56.980;24.336;2023-08-12T13:07:02;1.58;;;0.93;;
28653;SDS011;24320;56.980;24.336;2023-08-12T13:09:29;3.63;;;1.25;;
28653;SDS011;24320;56.980;24.336;2023-08-12T13:11:57;3.50;;;1.10;;
28653;SDS011;24320;56.980;24.336;2023-08-12T13:14:25;1.10;;;1.00;;
28653;SDS011;24320;56.980;24.336;2023-08-12T13:16:52;1.20;;;0.85;;
28653;SDS011;24320;56.980;24.336;2023-08-12T13:19:19;2.03;;;0.93;;
28653;SDS011;24320;56.980;24.336;2023-08-12T13:21:46;4.20;;;1.20;;
28653;SDS011;24320;56.980;24.336;2023-08-12T13:24:13;0.98;;;0.90;;
28653;SDS011;24320;56.980;24.336;2023-08-12T13:26:40;5.97;;;1.00;;
28653;SDS011;24320;56.980;24.336;2023-08-12T13:29:07;2.60;;;1.00;;
28653;SDS011;24320;56.980;24.336;2023-08-12T13:31:34;3.22;;;0.90;;
28653;SDS011;24320;56.980;24.336;2023-08-12T13:34:01;2.90;;;1.25;;
28653;SDS011;24320;56.980;24.336;2023-08-12T13:36:29;2.30;;;0.90;;
28653;SDS011;24320;56.980;24.336;2023-08-12T13:38:57;4.15;;;1.20;;
28653;SDS011;24320;56.980;24.336;2023-08-12T13:41:26;2.60;;;0.77;;
28653;SDS011;24320;56.980;24.336;2023-08-12T13:43:53;0.95;;;0.80;;
28653;SDS011;24320;56.980;24.336;2023-08-12T13:46:20;1.75;;;1.33;;
28653;SDS011;24320;56.980;24.336;2023-08-12T13:48:47;1.88;;;1.20;;
28653;SDS011;24320;56.980;24.336;2023-08-12T13:51:14;1.58;;;0.93;;
28653;SDS011;24320;56.980;24.336;2023-08-12T13:53:41;2.70;;;1.08;;
28653;SDS011;24320;56.980;24.336;2023-08-12T13:56:08;1.45;;;0.80;;
28653;SDS011;24320;56.980;24.336;2023-08-12T13:58:35;3.50;;;1.02;;
28653;SDS011;24320;56.980;24.336;2023-08-12T14:01:02;4.95;;;1.15;;
28653;SDS011;24320;56.980;24.336;2023-08-12T14:03:29;3.08;;;0.80;;
28653;SDS011;24320;56.980;24.336;2023-08-12T14:05:57;1.52;;;0.90;;
28653;SDS011;24320;56.980;24.336;2023-08-12T14:08:24;2.38;;;1.00;;
28653;SDS011;24320;56.980;24.336;2023-08-12T14:10:51;1.67;;;0.98;;
28653;SDS011;24320;56.980;24.336;2023-08-12T14:13:18;3.05;;;1.10;;
28653;SDS011;24320;56.980;24.336;2023-08-12T14:15:45;2.70;;;0.93;;
28653;SDS011;24320;56.980;24.336;2023-08-12T14:18:12;2.58;;;1.00;;
28653;SDS011;24320;56.980;24.336;2023-08-12T14:20:39;1.60;;;1.00;;
28653;SDS011;24320;56.980;24.336;2023-08-12T14:23:06;2.03;;;0.93;;
28653;SDS011;24320;56.980;24.336;2023-08-12T14:25:35;2.22;;;1.00;;
28653;SDS011;24320;56.980;24.336;2023-08-12T14:28:02;2.03;;;0.95;;
28653;SDS011;24320;56.980;24.336;2023-08-12T14:30:29;1.63;;;0.98;;
28653;SDS011;24320;56.980;24.336;2023-08-12T14:33:03;2.65;;;0.80;;
28653;SDS011;24320;56.980;24.336;2023-08-12T14:35:30;2.28;;;0.90;;
28653;SDS011;24320;56.980;24.336;2023-08-12T14:37:57;1.27;;;0.85;;
28653;SDS011;24320;56.980;24.336;2023-08-12T14:40:24;1.17;;;0.80;;
28653;SDS011;24320;56.980;24.336;2023-08-12T14:42:51;2.63;;;1.15;;
28653;SDS011;24320;56.980;24.336;2023-08-12T14:45:18;3.78;;;1.27;;
28653;SDS011;24320;56.980;24.336;2023-08-12T14:47:45;1.80;;;0.93;;
28653;SDS011;24320;56.980;24.336;2023-08-12T14:50:12;2.42;;;0.93;;
28653;SDS011;24320;56.980;24.336;2023-08-12T14:52:39;2.28;;;1.05;;
28653;SDS011;24320;56.980;24.336;2023-08-12T14:55:06;1.20;;;0.90;;